sensor_id;sensor_type;location;lat;lon;timestamp;temperature;humidity
20384;DHT22;46458;50.966;7.002;2022-09-27T00:02:24;11.70;99.90
20384;DHT22;46458;50.966;7.002;2022-09-27T00:04:55;11.60;99.90
20384;DHT22;46458;50.966;7.002;2022-09-27T00:07:25;11.70;99.90
20384;DHT22;46458;50.966;7.002;2022-09-27T00:09:59;10.70;99.90
20384;DHT22;46458;50.966;7.002;2022-09-27T00:12:28;11.80;99.90
20384;DHT22;46458;50.966;7.002;2022-09-27T00:14:57;11.60;99.90
20384;DHT22;46458;50.966;7.002;2022-09-27T00:17:27;11.70;99.90
20384;DHT22;46458;50.966;7.002;2022-09-27T00:20:01;11.80;99.90
20384;DHT22;46458;50.966;7.002;2022-09-27T00:22:30;11.30;99.90
20384;DHT22;46458;50.966;7.002;2022-09-27T00:24:59;11.30;99.90
20384;DHT22;46458;50.966;7.002;2022-09-27T00:27:31;11.50;99.90
20384;DHT22;46458;50.966;7.002;2022-09-27T00:30:00;11.20;99.90
20384;DHT22;46458;50.966;7.002;2022-09-27T00:32:29;11.20;99.90
20384;DHT22;46458;50.966;7.002;2022-09-27T00:35:01;11.20;99.90
20384;DHT22;46458;50.966;7.002;2022-09-27T00:37:30;11.60;99.90
20384;DHT22;46458;50.966;7.002;2022-09-27T00:40:00;11.30;99.90
20384;DHT22;46458;50.966;7.002;2022-09-27T00:42:29;11.10;99.90
20384;DHT22;46458;50.966;7.002;2022-09-27T00:45:05;11.10;99.90
20384;DHT22;46458;50.966;7.002;2022-09-27T00:47:41;11.20;99.90
20384;DHT22;46458;50.966;7.002;2022-09-27T00:50:23;11.20;99.90
20384;DHT22;46458;50.966;7.002;2022-09-27T00:53:02;11.10;99.90
20384;DHT22;46458;50.966;7.002;2022-09-27T00:55:34;11.50;99.90
20384;DHT22;46458;50.966;7.002;2022-09-27T00:58:04;11.20;99.90
20384;DHT22;46458;50.966;7.002;2022-09-27T01:00:38;11.00;99.90
20384;DHT22;46458;50.966;7.002;2022-09-27T01:03:18;11.50;99.90
20384;DHT22;46458;50.966;7.002;2022-09-27T01:05:52;11.50;99.90
20384;DHT22;46458;50.966;7.002;2022-09-27T01:08:22;10.80;99.90
20384;DHT22;46458;50.966;7.002;2022-09-27T01:10:59;11.60;99.90
20384;DHT22;46458;50.966;7.002;2022-09-27T01:13:37;11.20;99.90
20384;DHT22;46458;50.966;7.002;2022-09-27T01:16:15;11.20;99.90
20384;DHT22;46458;50.966;7.002;2022-09-27T01:18:57;11.70;99.90
20384;DHT22;46458;50.966;7.002;2022-09-27T01:21:44;11.50;99.90
20384;DHT22;46458;50.966;7.002;2022-09-27T01:24:43;11.30;99.90
20384;DHT22;46458;50.966;7.002;2022-09-27T01:30:19;11.20;99.90
20384;DHT22;46458;50.966;7.002;2022-09-27T01:33:01;11.00;99.90
20384;DHT22;46458;50.966;7.002;2022-09-27T01:35:38;11.50;99.90
20384;DHT22;46458;50.966;7.002;2022-09-27T01:38:14;11.10;99.90
20384;DHT22;46458;50.966;7.002;2022-09-27T01:40:55;11.30;99.90
20384;DHT22;46458;50.966;7.002;2022-09-27T01:43:41;11.00;99.90
20384;DHT22;46458;50.966;7.002;2022-09-27T01:46:20;11.90;99.90
20384;DHT22;46458;50.966;7.002;2022-09-27T01:49:14;10.80;99.90
20384;DHT22;46458;50.966;7.002;2022-09-27T01:51:47;11.30;99.90
20384;DHT22;46458;50.966;7.002;2022-09-27T01:54:29;11.40;99.90
20384;DHT22;46458;50.966;7.002;2022-09-27T01:57:19;12.60;99.90
20384;DHT22;46458;50.966;7.002;2022-09-27T01:59:53;11.00;99.90
20384;DHT22;46458;50.966;7.002;2022-09-27T02:02:48;11.30;99.90
20384;DHT22;46458;50.966;7.002;2022-09-27T02:05:32;11.30;99.90
20384;DHT22;46458;50.966;7.002;2022-09-27T02:08:28;11.40;99.90
20384;DHT22;46458;50.966;7.002;2022-09-27T02:11:09;11.40;99.90
20384;DHT22;46458;50.966;7.002;2022-09-27T02:13:47;11.50;99.90
20384;DHT22;46458;50.966;7.002;2022-09-27T02:16:44;11.00;99.90
20384;DHT22;46458;50.966;7.002;2022-09-27T02:19:29;11.40;99.90
20384;DHT22;46458;50.966;7.002;2022-09-27T02:22:05;11.10;99.90
20384;DHT22;46458;50.966;7.002;2022-09-27T02:24:40;11.30;99.90
20384;DHT22;46458;50.966;7.002;2022-09-27T02:27:16;10.70;99.90
20384;DHT22;46458;50.966;7.002;2022-09-27T02:29:50;10.90;99.90
20384;DHT22;46458;50.966;7.002;2022-09-27T02:32:21;11.30;99.90
20384;DHT22;46458;50.966;7.002;2022-09-27T02:34:52;10.80;99.90
20384;DHT22;46458;50.966;7.002;2022-09-27T02:37:22;11.30;99.90
20384;DHT22;46458;50.966;7.002;2022-09-27T02:39:51;11.20;99.90
20384;DHT22;46458;50.966;7.002;2022-09-27T02:42:20;11.20;99.90
20384;DHT22;46458;50.966;7.002;2022-09-27T02:44:49;11.40;99.90
20384;DHT22;46458;50.966;7.002;2022-09-27T02:47:30;10.90;99.90
20384;DHT22;46458;50.966;7.002;2022-09-27T02:50:27;10.90;99.90
20384;DHT22;46458;50.966;7.002;2022-09-27T02:53:24;10.70;99.90
20384;DHT22;46458;50.966;7.002;2022-09-27T02:56:09;11.20;99.90
20384;DHT22;46458;50.966;7.002;2022-09-27T02:59:09;11.20;99.90
20384;DHT22;46458;50.966;7.002;2022-09-27T03:02:22;11.20;99.90
20384;DHT22;46458;50.966;7.002;2022-09-27T03:05:23;10.80;99.90
20384;DHT22;46458;50.966;7.002;2022-09-27T03:07:53;10.90;99.90
20384;DHT22;46458;50.966;7.002;2022-09-27T03:10:28;11.00;99.90
20384;DHT22;46458;50.966;7.002;2022-09-27T03:12:57;10.70;99.90
20384;DHT22;46458;50.966;7.002;2022-09-27T03:15:26;11.00;99.90
20384;DHT22;46458;50.966;7.002;2022-09-27T03:18:01;11.00;99.90
20384;DHT22;46458;50.966;7.002;2022-09-27T03:20:51;11.10;99.90
20384;DHT22;46458;50.966;7.002;2022-09-27T03:23:23;10.80;99.90
20384;DHT22;46458;50.966;7.002;2022-09-27T03:25:53;11.10;99.90
20384;DHT22;46458;50.966;7.002;2022-09-27T03:28:23;10.80;99.90
20384;DHT22;46458;50.966;7.002;2022-09-27T03:30:54;10.80;99.90
20384;DHT22;46458;50.966;7.002;2022-09-27T03:33:53;10.70;99.90
20384;DHT22;46458;50.966;7.002;2022-09-27T03:36:24;10.90;99.90
20384;DHT22;46458;50.966;7.002;2022-09-27T03:38:53;11.00;99.90
20384;DHT22;46458;50.966;7.002;2022-09-27T03:41:23;10.60;99.90
20384;DHT22;46458;50.966;7.002;2022-09-27T03:43:52;10.80;99.90
20384;DHT22;46458;50.966;7.002;2022-09-27T03:46:23;10.80;99.90
20384;DHT22;46458;50.966;7.002;2022-09-27T03:48:52;11.10;99.90
20384;DHT22;46458;50.966;7.002;2022-09-27T03:51:24;10.70;99.90
20384;DHT22;46458;50.966;7.002;2022-09-27T03:53:53;10.90;99.90
20384;DHT22;46458;50.966;7.002;2022-09-27T03:56:23;10.60;99.90
20384;DHT22;46458;50.966;7.002;2022-09-27T03:58:52;10.70;99.90
20384;DHT22;46458;50.966;7.002;2022-09-27T04:01:21;10.50;99.90
20384;DHT22;46458;50.966;7.002;2022-09-27T04:03:54;10.50;99.90
20384;DHT22;46458;50.966;7.002;2022-09-27T04:06:32;10.30;99.90
20384;DHT22;46458;50.966;7.002;2022-09-27T04:09:03;10.30;99.90
20384;DHT22;46458;50.966;7.002;2022-09-27T04:11:50;10.30;99.90
20384;DHT22;46458;50.966;7.002;2022-09-27T04:14:20;10.30;99.90
20384;DHT22;46458;50.966;7.002;2022-09-27T04:17:11;10.30;99.90
20384;DHT22;46458;50.966;7.002;2022-09-27T04:20:07;10.80;99.90
20384;DHT22;46458;50.966;7.002;2022-09-27T04:22:41;10.30;99.90
20384;DHT22;46458;50.966;7.002;2022-09-27T04:25:11;10.50;99.90
20384;DHT22;46458;50.966;7.002;2022-09-27T04:27:43;10.20;99.90
20384;DHT22;46458;50.966;7.002;2022-09-27T04:30:14;10.40;99.90
20384;DHT22;46458;50.966;7.002;2022-09-27T04:33:21;10.00;99.90
20384;DHT22;46458;50.966;7.002;2022-09-27T04:36:06;10.10;99.90
20384;DHT22;46458;50.966;7.002;2022-09-27T04:39:12;10.10;99.90
20384;DHT22;46458;50.966;7.002;2022-09-27T04:41:44;10.20;99.90
20384;DHT22;46458;50.966;7.002;2022-09-27T04:44:16;10.00;99.90
20384;DHT22;46458;50.966;7.002;2022-09-27T04:46:52;10.10;99.90
20384;DHT22;46458;50.966;7.002;2022-09-27T04:49:21;9.40;99.90
20384;DHT22;46458;50.966;7.002;2022-09-27T04:51:50;10.40;99.90
20384;DHT22;46458;50.966;7.002;2022-09-27T04:54:21;10.30;99.90
20384;DHT22;46458;50.966;7.002;2022-09-27T04:56:59;10.00;99.90
20384;DHT22;46458;50.966;7.002;2022-09-27T04:59:28;10.10;99.90
20384;DHT22;46458;50.966;7.002;2022-09-27T05:01:58;10.00;99.90
20384;DHT22;46458;50.966;7.002;2022-09-27T05:04:47;10.10;99.90
20384;DHT22;46458;50.966;7.002;2022-09-27T05:07:18;10.20;99.90
20384;DHT22;46458;50.966;7.002;2022-09-27T05:09:55;10.20;99.90
20384;DHT22;46458;50.966;7.002;2022-09-27T05:12:28;10.40;99.90
20384;DHT22;46458;50.966;7.002;2022-09-27T05:14:59;9.90;99.90
20384;DHT22;46458;50.966;7.002;2022-09-27T05:17:34;9.80;99.90
20384;DHT22;46458;50.966;7.002;2022-09-27T05:20:21;9.90;99.90
20384;DHT22;46458;50.966;7.002;2022-09-27T05:22:53;10.00;99.90
20384;DHT22;46458;50.966;7.002;2022-09-27T05:25:27;10.40;99.90
20384;DHT22;46458;50.966;7.002;2022-09-27T05:27:59;9.40;99.90
20384;DHT22;46458;50.966;7.002;2022-09-27T05:30:29;10.40;99.90
20384;DHT22;46458;50.966;7.002;2022-09-27T05:33:09;10.20;99.90
20384;DHT22;46458;50.966;7.002;2022-09-27T05:35:41;10.40;99.90
20384;DHT22;46458;50.966;7.002;2022-09-27T05:38:12;10.20;99.90
20384;DHT22;46458;50.966;7.002;2022-09-27T05:40:51;10.00;99.90
20384;DHT22;46458;50.966;7.002;2022-09-27T05:43:20;10.00;99.90
20384;DHT22;46458;50.966;7.002;2022-09-27T05:45:50;10.30;99.90
20384;DHT22;46458;50.966;7.002;2022-09-27T05:48:20;10.00;99.90
20384;DHT22;46458;50.966;7.002;2022-09-27T05:50:59;10.50;99.90
20384;DHT22;46458;50.966;7.002;2022-09-27T05:53:31;10.30;99.90
20384;DHT22;46458;50.966;7.002;2022-09-27T05:56:06;10.50;99.90
20384;DHT22;46458;50.966;7.002;2022-09-27T05:59:00;10.50;99.90
20384;DHT22;46458;50.966;7.002;2022-09-27T06:01:44;10.40;99.90
20384;DHT22;46458;50.966;7.002;2022-09-27T06:04:32;10.20;99.90
20384;DHT22;46458;50.966;7.002;2022-09-27T06:07:21;10.00;99.90
20384;DHT22;46458;50.966;7.002;2022-09-27T06:09:50;10.20;99.90
20384;DHT22;46458;50.966;7.002;2022-09-27T06:12:22;10.60;99.90
20384;DHT22;46458;50.966;7.002;2022-09-27T06:14:51;10.10;99.90
20384;DHT22;46458;50.966;7.002;2022-09-27T06:17:37;10.60;99.90
20384;DHT22;46458;50.966;7.002;2022-09-27T06:20:14;10.40;99.90
20384;DHT22;46458;50.966;7.002;2022-09-27T06:22:50;10.40;99.90
20384;DHT22;46458;50.966;7.002;2022-09-27T06:25:19;10.90;99.90
20384;DHT22;46458;50.966;7.002;2022-09-27T06:28:05;10.20;99.90
20384;DHT22;46458;50.966;7.002;2022-09-27T06:30:38;10.50;99.90
20384;DHT22;46458;50.966;7.002;2022-09-27T06:33:18;10.50;99.90
20384;DHT22;46458;50.966;7.002;2022-09-27T06:35:51;10.50;99.90
20384;DHT22;46458;50.966;7.002;2022-09-27T06:38:23;10.50;99.90
20384;DHT22;46458;50.966;7.002;2022-09-27T06:41:04;10.50;99.90
20384;DHT22;46458;50.966;7.002;2022-09-27T06:43:54;11.40;99.90
20384;DHT22;46458;50.966;7.002;2022-09-27T06:49:30;10.30;99.90
20384;DHT22;46458;50.966;7.002;2022-09-27T06:52:05;10.50;99.90
20384;DHT22;46458;50.966;7.002;2022-09-27T06:54:34;10.60;99.90
20384;DHT22;46458;50.966;7.002;2022-09-27T06:57:03;10.70;99.90
20384;DHT22;46458;50.966;7.002;2022-09-27T06:59:35;10.90;99.90
20384;DHT22;46458;50.966;7.002;2022-09-27T07:02:36;10.60;99.90
20384;DHT22;46458;50.966;7.002;2022-09-27T07:05:32;10.50;99.90
20384;DHT22;46458;50.966;7.002;2022-09-27T07:08:09;10.70;99.90
20384;DHT22;46458;50.966;7.002;2022-09-27T07:10:39;10.80;99.90
20384;DHT22;46458;50.966;7.002;2022-09-27T07:13:09;10.90;99.90
20384;DHT22;46458;50.966;7.002;2022-09-27T07:15:42;10.80;99.90
20384;DHT22;46458;50.966;7.002;2022-09-27T07:18:14;10.50;99.90
20384;DHT22;46458;50.966;7.002;2022-09-27T07:20:43;10.50;99.90
20384;DHT22;46458;50.966;7.002;2022-09-27T07:23:13;10.80;99.90
20384;DHT22;46458;50.966;7.002;2022-09-27T07:25:42;10.60;99.90
20384;DHT22;46458;50.966;7.002;2022-09-27T07:28:15;10.80;99.90
20384;DHT22;46458;50.966;7.002;2022-09-27T07:30:46;10.60;99.90
20384;DHT22;46458;50.966;7.002;2022-09-27T07:33:15;10.50;99.90
20384;DHT22;46458;50.966;7.002;2022-09-27T07:35:44;10.80;99.90
20384;DHT22;46458;50.966;7.002;2022-09-27T07:38:13;10.60;99.90
20384;DHT22;46458;50.966;7.002;2022-09-27T07:40:45;10.50;99.90
20384;DHT22;46458;50.966;7.002;2022-09-27T07:43:16;10.70;99.90
20384;DHT22;46458;50.966;7.002;2022-09-27T07:45:48;10.40;99.90
20384;DHT22;46458;50.966;7.002;2022-09-27T07:48:38;10.60;99.90
20384;DHT22;46458;50.966;7.002;2022-09-27T07:51:19;10.60;99.90
20384;DHT22;46458;50.966;7.002;2022-09-27T07:53:51;10.70;99.90
20384;DHT22;46458;50.966;7.002;2022-09-27T07:56:33;10.50;99.90
20384;DHT22;46458;50.966;7.002;2022-09-27T07:59:04;10.40;99.90
20384;DHT22;46458;50.966;7.002;2022-09-27T08:01:36;10.70;99.90
20384;DHT22;46458;50.966;7.002;2022-09-27T08:04:05;10.90;99.90
20384;DHT22;46458;50.966;7.002;2022-09-27T08:06:34;10.90;99.90
20384;DHT22;46458;50.966;7.002;2022-09-27T08:09:05;10.90;99.90
20384;DHT22;46458;50.966;7.002;2022-09-27T08:11:35;10.60;99.90
20384;DHT22;46458;50.966;7.002;2022-09-27T08:14:04;10.90;99.90
20384;DHT22;46458;50.966;7.002;2022-09-27T08:16:36;10.50;99.90
20384;DHT22;46458;50.966;7.002;2022-09-27T08:19:21;11.10;99.90
20384;DHT22;46458;50.966;7.002;2022-09-27T08:22:05;10.90;99.90
20384;DHT22;46458;50.966;7.002;2022-09-27T08:24:41;10.80;99.90
20384;DHT22;46458;50.966;7.002;2022-09-27T08:27:21;11.30;99.90
20384;DHT22;46458;50.966;7.002;2022-09-27T08:29:59;10.80;99.90
20384;DHT22;46458;50.966;7.002;2022-09-27T08:32:31;10.90;99.90
20384;DHT22;46458;50.966;7.002;2022-09-27T08:35:01;11.00;99.90
20384;DHT22;46458;50.966;7.002;2022-09-27T08:37:32;10.90;99.90
20384;DHT22;46458;50.966;7.002;2022-09-27T08:40:02;11.10;99.90
20384;DHT22;46458;50.966;7.002;2022-09-27T08:42:39;11.10;99.90
20384;DHT22;46458;50.966;7.002;2022-09-27T08:45:14;11.30;99.90
20384;DHT22;46458;50.966;7.002;2022-09-27T08:47:50;11.90;99.90
20384;DHT22;46458;50.966;7.002;2022-09-27T08:50:26;11.70;99.90
20384;DHT22;46458;50.966;7.002;2022-09-27T08:53:01;11.40;99.90
20384;DHT22;46458;50.966;7.002;2022-09-27T08:55:36;11.80;99.90
20384;DHT22;46458;50.966;7.002;2022-09-27T08:58:14;11.60;99.90
20384;DHT22;46458;50.966;7.002;2022-09-27T09:00:44;11.80;99.90
20384;DHT22;46458;50.966;7.002;2022-09-27T09:03:18;12.50;99.90
20384;DHT22;46458;50.966;7.002;2022-09-27T09:05:55;12.90;99.90
20384;DHT22;46458;50.966;7.002;2022-09-27T09:08:34;13.50;99.90
20384;DHT22;46458;50.966;7.002;2022-09-27T09:11:11;12.70;99.90
20384;DHT22;46458;50.966;7.002;2022-09-27T09:14:17;13.30;99.90
20384;DHT22;46458;50.966;7.002;2022-09-27T09:16:54;13.20;99.90
20384;DHT22;46458;50.966;7.002;2022-09-27T09:19:46;13.30;99.90
20384;DHT22;46458;50.966;7.002;2022-09-27T09:22:38;13.10;99.90
20384;DHT22;46458;50.966;7.002;2022-09-27T09:25:20;12.80;99.90
20384;DHT22;46458;50.966;7.002;2022-09-27T09:27:57;12.80;99.90
20384;DHT22;46458;50.966;7.002;2022-09-27T09:30:35;13.10;99.90
20384;DHT22;46458;50.966;7.002;2022-09-27T09:33:21;12.80;99.90
20384;DHT22;46458;50.966;7.002;2022-09-27T09:35:56;12.80;99.90
20384;DHT22;46458;50.966;7.002;2022-09-27T09:38:33;12.80;99.90
20384;DHT22;46458;50.966;7.002;2022-09-27T09:41:09;12.60;99.90
20384;DHT22;46458;50.966;7.002;2022-09-27T09:43:44;12.60;99.90
20384;DHT22;46458;50.966;7.002;2022-09-27T09:46:18;12.30;99.90
20384;DHT22;46458;50.966;7.002;2022-09-27T09:48:53;12.60;99.90
20384;DHT22;46458;50.966;7.002;2022-09-27T09:51:30;12.20;99.90
20384;DHT22;46458;50.966;7.002;2022-09-27T09:54:03;12.30;99.90
20384;DHT22;46458;50.966;7.002;2022-09-27T09:56:40;12.40;99.90
20384;DHT22;46458;50.966;7.002;2022-09-27T09:59:16;12.10;99.90
20384;DHT22;46458;50.966;7.002;2022-09-27T10:01:49;12.50;99.90
20384;DHT22;46458;50.966;7.002;2022-09-27T10:04:23;12.40;99.90
20384;DHT22;46458;50.966;7.002;2022-09-27T10:06:59;12.40;99.90
20384;DHT22;46458;50.966;7.002;2022-09-27T10:09:32;12.20;99.90
20384;DHT22;46458;50.966;7.002;2022-09-27T10:12:20;12.10;99.90
20384;DHT22;46458;50.966;7.002;2022-09-27T10:14:51;12.30;99.90
20384;DHT22;46458;50.966;7.002;2022-09-27T10:17:23;12.40;99.90
20384;DHT22;46458;50.966;7.002;2022-09-27T10:19:55;12.10;99.90
20384;DHT22;46458;50.966;7.002;2022-09-27T10:22:30;12.40;99.90
20384;DHT22;46458;50.966;7.002;2022-09-27T10:25:11;12.20;99.90
20384;DHT22;46458;50.966;7.002;2022-09-27T10:27:47;12.40;99.90
20384;DHT22;46458;50.966;7.002;2022-09-27T10:30:24;12.80;99.90
20384;DHT22;46458;50.966;7.002;2022-09-27T10:32:56;12.40;99.90
20384;DHT22;46458;50.966;7.002;2022-09-27T10:35:47;12.80;99.90
20384;DHT22;46458;50.966;7.002;2022-09-27T10:38:29;12.70;99.90
20384;DHT22;46458;50.966;7.002;2022-09-27T10:41:21;12.40;99.90
20384;DHT22;46458;50.966;7.002;2022-09-27T10:44:19;12.50;99.90
20384;DHT22;46458;50.966;7.002;2022-09-27T10:46:53;12.80;99.90
20384;DHT22;46458;50.966;7.002;2022-09-27T10:49:41;12.20;99.90
20384;DHT22;46458;50.966;7.002;2022-09-27T10:52:29;12.50;99.90
20384;DHT22;46458;50.966;7.002;2022-09-27T10:55:07;12.20;99.90
20384;DHT22;46458;50.966;7.002;2022-09-27T10:57:48;12.20;99.90
20384;DHT22;46458;50.966;7.002;2022-09-27T11:00:22;12.20;99.90
20384;DHT22;46458;50.966;7.002;2022-09-27T11:02:54;12.40;99.90
20384;DHT22;46458;50.966;7.002;2022-09-27T11:05:34;12.70;99.90
20384;DHT22;46458;50.966;7.002;2022-09-27T11:08:21;12.50;99.90
20384;DHT22;46458;50.966;7.002;2022-09-27T11:11:19;12.80;99.90
20384;DHT22;46458;50.966;7.002;2022-09-27T11:13:59;12.60;99.90
20384;DHT22;46458;50.966;7.002;2022-09-27T11:16:56;12.80;99.90
20384;DHT22;46458;50.966;7.002;2022-09-27T11:19:42;13.10;99.90
20384;DHT22;46458;50.966;7.002;2022-09-27T11:22:38;12.70;99.90
20384;DHT22;46458;50.966;7.002;2022-09-27T11:25:19;12.20;99.90
20384;DHT22;46458;50.966;7.002;2022-09-27T11:27:58;12.50;99.90
20384;DHT22;46458;50.966;7.002;2022-09-27T11:30:37;12.50;99.90
20384;DHT22;46458;50.966;7.002;2022-09-27T11:33:47;12.60;99.90
20384;DHT22;46458;50.966;7.002;2022-09-27T11:36:32;14.40;99.90
20384;DHT22;46458;50.966;7.002;2022-09-27T11:39:08;13.10;99.90
20384;DHT22;46458;50.966;7.002;2022-09-27T11:41:53;13.20;99.90
20384;DHT22;46458;50.966;7.002;2022-09-27T11:44:57;12.90;99.90
20384;DHT22;46458;50.966;7.002;2022-09-27T11:47:37;12.90;99.90
20384;DHT22;46458;50.966;7.002;2022-09-27T11:50:22;13.00;99.90
20384;DHT22;46458;50.966;7.002;2022-09-27T11:53:05;13.10;99.90
20384;DHT22;46458;50.966;7.002;2022-09-27T11:55:43;13.50;99.90
20384;DHT22;46458;50.966;7.002;2022-09-27T11:58:24;13.10;99.90
20384;DHT22;46458;50.966;7.002;2022-09-27T12:01:16;12.70;99.90
20384;DHT22;46458;50.966;7.002;2022-09-27T12:04:07;12.80;99.90
20384;DHT22;46458;50.966;7.002;2022-09-27T12:06:45;12.60;99.90
20384;DHT22;46458;50.966;7.002;2022-09-27T12:09:18;12.90;99.90
20384;DHT22;46458;50.966;7.002;2022-09-27T12:11:51;12.50;99.90
20384;DHT22;46458;50.966;7.002;2022-09-27T12:14:26;12.60;99.90
20384;DHT22;46458;50.966;7.002;2022-09-27T12:17:03;13.00;99.90
20384;DHT22;46458;50.966;7.002;2022-09-27T12:19:36;12.60;99.90
20384;DHT22;46458;50.966;7.002;2022-09-27T12:22:20;12.50;99.90
20384;DHT22;46458;50.966;7.002;2022-09-27T12:24:52;12.70;99.90
20384;DHT22;46458;50.966;7.002;2022-09-27T12:27:46;12.70;99.90
20384;DHT22;46458;50.966;7.002;2022-09-27T12:30:21;12.70;99.90
20384;DHT22;46458;50.966;7.002;2022-09-27T12:33:00;12.60;99.90
20384;DHT22;46458;50.966;7.002;2022-09-27T12:35:35;12.50;99.90
20384;DHT22;46458;50.966;7.002;2022-09-27T12:38:12;12.40;99.90
20384;DHT22;46458;50.966;7.002;2022-09-27T12:40:45;12.10;99.90
20384;DHT22;46458;50.966;7.002;2022-09-27T12:43:20;11.90;99.90
20384;DHT22;46458;50.966;7.002;2022-09-27T12:46:13;11.90;99.90
20384;DHT22;46458;50.966;7.002;2022-09-27T12:48:52;14.70;99.90
20384;DHT22;46458;50.966;7.002;2022-09-27T12:51:30;11.60;99.90
20384;DHT22;46458;50.966;7.002;2022-09-27T12:54:20;11.60;99.90
20384;DHT22;46458;50.966;7.002;2022-09-27T12:56:59;11.70;99.90
20384;DHT22;46458;50.966;7.002;2022-09-27T12:59:50;11.80;99.90
20384;DHT22;46458;50.966;7.002;2022-09-27T13:02:48;11.80;99.90
20384;DHT22;46458;50.966;7.002;2022-09-27T13:05:57;11.40;99.90
20384;DHT22;46458;50.966;7.002;2022-09-27T13:11:23;11.50;99.90
20384;DHT22;46458;50.966;7.002;2022-09-27T13:13:54;11.40;99.90
20384;DHT22;46458;50.966;7.002;2022-09-27T13:16:24;10.90;99.90
20384;DHT22;46458;50.966;7.002;2022-09-27T13:18:55;11.10;99.90
20384;DHT22;46458;50.966;7.002;2022-09-27T13:24:49;10.90;99.90
20384;DHT22;46458;50.966;7.002;2022-09-27T13:27:42;10.80;99.90
20384;DHT22;46458;50.966;7.002;2022-09-27T13:30:44;11.00;99.90
20384;DHT22;46458;50.966;7.002;2022-09-27T13:33:32;11.10;99.90
20384;DHT22;46458;50.966;7.002;2022-09-27T13:36:18;11.10;99.90
20384;DHT22;46458;50.966;7.002;2022-09-27T13:38:56;11.10;99.90
20384;DHT22;46458;50.966;7.002;2022-09-27T13:42:03;11.10;99.90
20384;DHT22;46458;50.966;7.002;2022-09-27T13:44:58;11.10;99.90
20384;DHT22;46458;50.966;7.002;2022-09-27T13:47:33;11.00;99.90
20384;DHT22;46458;50.966;7.002;2022-09-27T13:50:17;11.30;99.90
20384;DHT22;46458;50.966;7.002;2022-09-27T13:53:05;11.50;99.90
20384;DHT22;46458;50.966;7.002;2022-09-27T13:55:42;11.30;99.90
20384;DHT22;46458;50.966;7.002;2022-09-27T13:58:46;11.20;99.90
20384;DHT22;46458;50.966;7.002;2022-09-27T14:01:39;11.90;99.90
20384;DHT22;46458;50.966;7.002;2022-09-27T14:04:13;11.70;99.90
20384;DHT22;46458;50.966;7.002;2022-09-27T14:06:49;12.10;99.90
20384;DHT22;46458;50.966;7.002;2022-09-27T14:09:28;11.90;99.90
20384;DHT22;46458;50.966;7.002;2022-09-27T14:12:11;12.20;99.90
20384;DHT22;46458;50.966;7.002;2022-09-27T14:14:48;11.80;99.90
20384;DHT22;46458;50.966;7.002;2022-09-27T14:17:17;11.90;99.90
20384;DHT22;46458;50.966;7.002;2022-09-27T14:19:47;11.80;99.90
20384;DHT22;46458;50.966;7.002;2022-09-27T14:22:21;11.80;99.90
20384;DHT22;46458;50.966;7.002;2022-09-27T14:24:58;12.30;99.90
20384;DHT22;46458;50.966;7.002;2022-09-27T14:27:37;12.10;99.90
20384;DHT22;46458;50.966;7.002;2022-09-27T14:30:25;11.90;99.90
20384;DHT22;46458;50.966;7.002;2022-09-27T14:33:27;12.10;99.90
20384;DHT22;46458;50.966;7.002;2022-09-27T14:36:01;12.00;99.90
20384;DHT22;46458;50.966;7.002;2022-09-27T14:38:49;12.00;99.90
20384;DHT22;46458;50.966;7.002;2022-09-27T14:41:26;12.30;99.90
20384;DHT22;46458;50.966;7.002;2022-09-27T14:44:03;11.90;99.90
20384;DHT22;46458;50.966;7.002;2022-09-27T14:46:34;11.80;99.90
20384;DHT22;46458;50.966;7.002;2022-09-27T14:49:11;12.00;99.90
20384;DHT22;46458;50.966;7.002;2022-09-27T14:51:51;12.00;99.90
20384;DHT22;46458;50.966;7.002;2022-09-27T14:54:21;12.00;99.90
20384;DHT22;46458;50.966;7.002;2022-09-27T14:56:52;11.70;99.90
20384;DHT22;46458;50.966;7.002;2022-09-27T14:59:24;11.90;99.90
20384;DHT22;46458;50.966;7.002;2022-09-27T15:02:13;12.10;99.90
20384;DHT22;46458;50.966;7.002;2022-09-27T15:04:45;11.80;99.90
20384;DHT22;46458;50.966;7.002;2022-09-27T15:07:16;11.80;99.90
20384;DHT22;46458;50.966;7.002;2022-09-27T15:09:48;12.00;99.90
20384;DHT22;46458;50.966;7.002;2022-09-27T15:12:23;12.00;99.90
20384;DHT22;46458;50.966;7.002;2022-09-27T15:14:54;12.40;99.90
20384;DHT22;46458;50.966;7.002;2022-09-27T15:17:40;11.90;99.90
20384;DHT22;46458;50.966;7.002;2022-09-27T15:20:22;12.00;99.90
20384;DHT22;46458;50.966;7.002;2022-09-27T15:22:53;11.70;99.90
20384;DHT22;46458;50.966;7.002;2022-09-27T15:25:29;11.70;99.90
20384;DHT22;46458;50.966;7.002;2022-09-27T15:28:02;12.40;99.90
20384;DHT22;46458;50.966;7.002;2022-09-27T15:30:36;11.60;99.90
20384;DHT22;46458;50.966;7.002;2022-09-27T15:33:18;11.60;99.90
20384;DHT22;46458;50.966;7.002;2022-09-27T15:35:52;11.50;99.90
20384;DHT22;46458;50.966;7.002;2022-09-27T15:38:26;11.50;99.90
20384;DHT22;46458;50.966;7.002;2022-09-27T15:41:05;11.60;99.90
20384;DHT22;46458;50.966;7.002;2022-09-27T15:46:28;11.50;99.90
20384;DHT22;46458;50.966;7.002;2022-09-27T15:49:25;11.50;99.90
20384;DHT22;46458;50.966;7.002;2022-09-27T15:51:56;11.40;99.90
20384;DHT22;46458;50.966;7.002;2022-09-27T15:54:27;11.20;99.90
20384;DHT22;46458;50.966;7.002;2022-09-27T15:57:02;11.50;99.90
20384;DHT22;46458;50.966;7.002;2022-09-27T15:59:35;11.20;99.90
20384;DHT22;46458;50.966;7.002;2022-09-27T16:02:11;11.10;99.90
20384;DHT22;46458;50.966;7.002;2022-09-27T16:04:44;11.30;99.90
20384;DHT22;46458;50.966;7.002;2022-09-27T16:07:13;11.00;99.90
20384;DHT22;46458;50.966;7.002;2022-09-27T16:09:42;11.20;99.90
20384;DHT22;46458;50.966;7.002;2022-09-27T16:12:11;11.40;99.90
20384;DHT22;46458;50.966;7.002;2022-09-27T16:14:40;11.30;99.90
20384;DHT22;46458;50.966;7.002;2022-09-27T16:17:09;11.00;99.90
20384;DHT22;46458;50.966;7.002;2022-09-27T16:19:38;11.20;99.90
20384;DHT22;46458;50.966;7.002;2022-09-27T16:22:11;11.10;99.90
20384;DHT22;46458;50.966;7.002;2022-09-27T16:24:44;10.90;99.90
20384;DHT22;46458;50.966;7.002;2022-09-27T16:27:21;10.90;99.90
20384;DHT22;46458;50.966;7.002;2022-09-27T16:29:55;11.00;99.90
20384;DHT22;46458;50.966;7.002;2022-09-27T16:32:27;11.00;99.90
20384;DHT22;46458;50.966;7.002;2022-09-27T16:34:55;10.90;99.90
20384;DHT22;46458;50.966;7.002;2022-09-27T16:37:27;10.90;99.90
20384;DHT22;46458;50.966;7.002;2022-09-27T16:39:57;11.00;99.90
20384;DHT22;46458;50.966;7.002;2022-09-27T16:42:26;10.80;99.90
20384;DHT22;46458;50.966;7.002;2022-09-27T16:44:55;10.90;99.90
20384;DHT22;46458;50.966;7.002;2022-09-27T16:47:24;11.10;99.90
20384;DHT22;46458;50.966;7.002;2022-09-27T16:49:52;10.90;99.90
20384;DHT22;46458;50.966;7.002;2022-09-27T16:52:39;10.50;99.90